UAL Europe — MKVS6 — position and weather

sailwx.info

Track history (hours):
 
Tides and Currents Weather Stations Pressure Air Temp Water Temp Dewpoint Dewpoint Depression Visibility Wind Speed Wind Dir Waves Ship Positions

UAL Europe

Last reported at 2015-Jun-26 04:20 UTC. Time now 2015-Jul-28 05:51 UTC.
Position N 36°09' W 005°22'.
Warning: this ship's position is 32 days out of date.

Length 145 m; draft 5.5 m.

Type: Ship (hazmat cat A). MMSI: 235010190.

Date/timePositionNaut miles runAvg speedWind from/ knotsBaromVisibWave heightAir tempDewpointWater temp
2015-Jun-26 04:20N 36°09' W 005°22'0 0.0
2015-Jun-25 15:14N 36°09' W 005°22'0 0.1
2015-Jun-25 12:15N 36°09' W 005°22'0 0.0
2015-Jun-25 11:30N 36°09' W 005°22'1 0.6
2015-Jun-25 09:15N 36°07' W 005°22'3 4.4
2015-Jun-25 08:33N 36°07' W 005°18'2 1.8
2015-Jun-25 07:30N 36°09' W 005°18'0 0.0
2015-Jun-25 06:15N 36°09' W 005°18'0 0.1
2015-Jun-25 05:32N 36°09' W 005°18'0 0.1
2015-Jun-25 04:32N 36°09' W 005°18'0 0.0
2015-Jun-25 03:32N 36°09' W 005°18'0 0.1
2015-Jun-25 02:26N 36°09' W 005°18'0 0.1
2015-Jun-25 01:14N 36°09' W 005°18'0 0.2
2015-Jun-25 00:32N 36°09' W 005°18'0 0.0
2015-Jun-24 23:32N 36°09' W 005°18'0 0.1
2015-Jun-24 22:29N 36°09' W 005°18'0 0.0
2015-Jun-24 21:32N 36°09' W 005°18'0 0.0
2015-Jun-24 20:32N 36°09' W 005°18'0 0.0
2015-Jun-24 19:32N 36°09' W 005°18'0 0.0
2015-Jun-24 18:32N 36°09' W 005°18'0 0.0
2015-Jun-24 17:32N 36°09' W 005°18'0 0.0
2015-Jun-24 16:32N 36°09' W 005°18'0 0.0
2015-Jun-24 15:29N 36°09' W 005°18'0 0.0
2015-Jun-24 14:17N 36°09' W 005°18'0 0.0
2015-Jun-24 13:32N 36°09' W 005°18'0 0.0
2015-Jun-24 12:23N 36°09' W 005°18'0 0.1
2015-Jun-24 11:29N 36°09' W 005°18'0 0.0
2015-Jun-24 10:29N 36°09' W 005°18'0 0.0
2015-Jun-24 09:32N 36°09' W 005°18'0 0.0
2015-Jun-24 08:26N 36°09' W 005°18'0 0.1
2015-Jun-24 07:32N 36°09' W 005°18'0 0.0
2015-Jun-24 06:32N 36°09' W 005°18'0 0.1
2015-Jun-24 05:33N 36°09' W 005°18'2 2.1
2015-Jun-24 04:33N 36°09' W 005°15'9910.6
2015-Jun-23 19:15N 36°25' W 003°14'311.4
2015-Jun-23 18:58N 36°25' W 003°10'27111.6
2015-Jun-22 19:33N 36°54' E 002°26'1212.0
2015-Jun-22 18:33N 36°55' E 002°41'1312.8
2015-Jun-22 17:33N 36°54' E 002°57'10 8.9
2015-Jun-22 16:27N 36°47' E 003°05'1 0.6
2015-Jun-22 15:20N 36°47' E 003°04'0 0.0
2015-Jun-22 14:20N 36°47' E 003°04'  
Track history (hours):
 
Tides and Currents Weather Stations Pressure Air Temp Water Temp Dewpoint Dewpoint Depression Visibility Wind Speed Wind Dir Waves Ship Positions

UAL Europe

Last reported at 2015-Jun-26 04:20 UTC. Time now 2015-Jul-28 05:51 UTC.
Position N 36°09' W 005°22'.
Warning: this ship's position is 32 days out of date.

Length 145 m; draft 5.5 m.

Type: Ship (hazmat cat A). MMSI: 235010190.

Date/timePositionNaut miles runAvg speedWind from/ knotsBaromVisibWave heightAir tempDewpointWater temp
2015-Jun-26 04:20N 36°09' W 005°22'0 0.0
2015-Jun-25 15:14N 36°09' W 005°22'0 0.1
2015-Jun-25 12:15N 36°09' W 005°22'0 0.0
2015-Jun-25 11:30N 36°09' W 005°22'1 0.6
2015-Jun-25 09:15N 36°07' W 005°22'3 4.4
2015-Jun-25 08:33N 36°07' W 005°18'2 1.8
2015-Jun-25 07:30N 36°09' W 005°18'0 0.0
2015-Jun-25 06:15N 36°09' W 005°18'0 0.1
2015-Jun-25 05:32N 36°09' W 005°18'0 0.1
2015-Jun-25 04:32N 36°09' W 005°18'0 0.0
2015-Jun-25 03:32N 36°09' W 005°18'0 0.1
2015-Jun-25 02:26N 36°09' W 005°18'0 0.1
2015-Jun-25 01:14N 36°09' W 005°18'0 0.2
2015-Jun-25 00:32N 36°09' W 005°18'0 0.0
2015-Jun-24 23:32N 36°09' W 005°18'0 0.1
2015-Jun-24 22:29N 36°09' W 005°18'0 0.0
2015-Jun-24 21:32N 36°09' W 005°18'0 0.0
2015-Jun-24 20:32N 36°09' W 005°18'0 0.0
2015-Jun-24 19:32N 36°09' W 005°18'0 0.0
2015-Jun-24 18:32N 36°09' W 005°18'0 0.0
2015-Jun-24 17:32N 36°09' W 005°18'0 0.0
2015-Jun-24 16:32N 36°09' W 005°18'0 0.0
2015-Jun-24 15:29N 36°09' W 005°18'0 0.0
2015-Jun-24 14:17N 36°09' W 005°18'0 0.0
2015-Jun-24 13:32N 36°09' W 005°18'0 0.0
2015-Jun-24 12:23N 36°09' W 005°18'0 0.1
2015-Jun-24 11:29N 36°09' W 005°18'0 0.0
2015-Jun-24 10:29N 36°09' W 005°18'0 0.0
2015-Jun-24 09:32N 36°09' W 005°18'0 0.0
2015-Jun-24 08:26N 36°09' W 005°18'0 0.1
2015-Jun-24 07:32N 36°09' W 005°18'0 0.0
2015-Jun-24 06:32N 36°09' W 005°18'0 0.1
2015-Jun-24 05:33N 36°09' W 005°18'2 2.1
2015-Jun-24 04:33N 36°09' W 005°15'9910.6
2015-Jun-23 19:15N 36°25' W 003°14'311.4
2015-Jun-23 18:58N 36°25' W 003°10'27111.6
2015-Jun-22 19:33N 36°54' E 002°26'1212.0
2015-Jun-22 18:33N 36°55' E 002°41'1312.8
2015-Jun-22 17:33N 36°54' E 002°57'10 8.9
2015-Jun-22 16:27N 36°47' E 003°05'1 0.6
2015-Jun-22 15:20N 36°47' E 003°04'0 0.0
2015-Jun-22 14:20N 36°47' E 003°04'  

Dump ship's entire track history